sensor_id;sensor_type;location;lat;lon;timestamp;pressure;altitude;pressure_sealevel;temperature;humidity
52947;BME280;45776;40.400;17.260;2022-07-23T00:00:57;101223.81;;;27.72;84.12
52947;BME280;45776;40.400;17.260;2022-07-23T00:03:22;101222.66;;;27.49;86.85
52947;BME280;45776;40.400;17.260;2022-07-23T00:05:48;101220.47;;;27.32;87.42
52947;BME280;45776;40.400;17.260;2022-07-23T00:08:14;101218.97;;;27.22;89.05
52947;BME280;45776;40.400;17.260;2022-07-23T00:10:39;101215.53;;;27.20;88.53
52947;BME280;45776;40.400;17.260;2022-07-23T00:13:05;101215.34;;;27.26;88.25
52947;BME280;45776;40.400;17.260;2022-07-23T00:15:30;101210.81;;;27.28;87.53
52947;BME280;45776;40.400;17.260;2022-07-23T00:17:56;101224.31;;;27.22;85.87
52947;BME280;45776;40.400;17.260;2022-07-23T00:20:21;101221.03;;;27.12;85.86
52947;BME280;45776;40.400;17.260;2022-07-23T00:22:51;101222.78;;;27.13;84.53
52947;BME280;45776;40.400;17.260;2022-07-23T00:25:17;101219.34;;;27.10;84.78
52947;BME280;45776;40.400;17.260;2022-07-23T00:27:43;101211.13;;;26.86;87.16
52947;BME280;45776;40.400;17.260;2022-07-23T00:30:09;101217.88;;;26.98;88.17
52947;BME280;45776;40.400;17.260;2022-07-23T00:35:12;101213.06;;;27.12;87.39
52947;BME280;45776;40.400;17.260;2022-07-23T00:37:38;101226.81;;;26.95;88.48
52947;BME280;45776;40.400;17.260;2022-07-23T00:40:03;101216.84;;;27.03;88.09
52947;BME280;45776;40.400;17.260;2022-07-23T00:42:31;101222.41;;;27.27;86.06
52947;BME280;45776;40.400;17.260;2022-07-23T00:44:56;101218.31;;;27.15;85.30
52947;BME280;45776;40.400;17.260;2022-07-23T00:47:22;101224.97;;;27.30;84.53
52947;BME280;45776;40.400;17.260;2022-07-23T00:49:47;101221.31;;;27.34;83.73
52947;BME280;45776;40.400;17.260;2022-07-23T00:52:13;101218.88;;;26.93;84.85
52947;BME280;45776;40.400;17.260;2022-07-23T00:54:39;101221.75;;;26.86;85.07
52947;BME280;45776;40.400;17.260;2022-07-23T00:57:04;101217.91;;;26.96;81.81
52947;BME280;45776;40.400;17.260;2022-07-23T00:59:30;101211.66;;;26.99;81.89
52947;BME280;45776;40.400;17.260;2022-07-23T01:01:56;101214.63;;;26.86;79.35
52947;BME280;45776;40.400;17.260;2022-07-23T01:04:22;101222.78;;;26.80;78.55
52947;BME280;45776;40.400;17.260;2022-07-23T01:06:47;101219.59;;;26.66;78.06
52947;BME280;45776;40.400;17.260;2022-07-23T01:09:13;101214.16;;;26.69;77.16
52947;BME280;45776;40.400;17.260;2022-07-23T01:11:38;101220.28;;;26.72;76.46
52947;BME280;45776;40.400;17.260;2022-07-23T01:14:10;101217.72;;;26.69;77.05
52947;BME280;45776;40.400;17.260;2022-07-23T01:16:36;101214.44;;;26.58;76.95
52947;BME280;45776;40.400;17.260;2022-07-23T01:19:01;101217.19;;;26.55;76.77
52947;BME280;45776;40.400;17.260;2022-07-23T01:21:29;101209.25;;;26.53;77.22
52947;BME280;45776;40.400;17.260;2022-07-23T01:23:54;101211.78;;;26.58;76.21
52947;BME280;45776;40.400;17.260;2022-07-23T01:26:20;101215.91;;;26.70;75.09
52947;BME280;45776;40.400;17.260;2022-07-23T01:28:45;101209.66;;;26.72;73.87
52947;BME280;45776;40.400;17.260;2022-07-23T01:31:11;101202.53;;;26.76;72.96
52947;BME280;45776;40.400;17.260;2022-07-23T01:33:37;101211.06;;;26.87;72.12
52947;BME280;45776;40.400;17.260;2022-07-23T01:36:02;101207.38;;;26.93;71.02
52947;BME280;45776;40.400;17.260;2022-07-23T01:38:28;101204.63;;;26.96;70.21
52947;BME280;45776;40.400;17.260;2022-07-23T01:40:53;101204.56;;;26.99;68.75
52947;BME280;45776;40.400;17.260;2022-07-23T01:43:19;101202.78;;;27.00;66.94
52947;BME280;45776;40.400;17.260;2022-07-23T01:45:44;101206.53;;;26.91;66.75
52947;BME280;45776;40.400;17.260;2022-07-23T01:48:10;101202.94;;;26.93;66.14
52947;BME280;45776;40.400;17.260;2022-07-23T01:50:35;101207.09;;;27.04;65.40
52947;BME280;45776;40.400;17.260;2022-07-23T01:53:01;101206.72;;;27.18;65.11
52947;BME280;45776;40.400;17.260;2022-07-23T01:55:26;101211.78;;;27.27;64.51
52947;BME280;45776;40.400;17.260;2022-07-23T01:57:52;101202.06;;;27.24;63.74
52947;BME280;45776;40.400;17.260;2022-07-23T02:00:17;101204.38;;;27.05;63.45
52947;BME280;45776;40.400;17.260;2022-07-23T02:02:43;101214.06;;;27.08;64.19
52947;BME280;45776;40.400;17.260;2022-07-23T02:05:08;101213.72;;;26.87;63.19
52947;BME280;45776;40.400;17.260;2022-07-23T02:07:34;101215.25;;;26.61;61.94
52947;BME280;45776;40.400;17.260;2022-07-23T02:09:59;101211.78;;;26.58;62.26
52947;BME280;45776;40.400;17.260;2022-07-23T02:12:25;101211.50;;;26.69;63.56
52947;BME280;45776;40.400;17.260;2022-07-23T02:14:50;101209.63;;;26.39;62.13
52947;BME280;45776;40.400;17.260;2022-07-23T02:17:16;101212.03;;;26.49;60.73
52947;BME280;45776;40.400;17.260;2022-07-23T02:19:41;101208.56;;;26.47;61.33
52947;BME280;45776;40.400;17.260;2022-07-23T02:22:06;101202.66;;;26.34;60.60
52947;BME280;45776;40.400;17.260;2022-07-23T02:24:32;101208.94;;;26.29;61.79
52947;BME280;45776;40.400;17.260;2022-07-23T02:26:57;101205.44;;;26.29;62.10
52947;BME280;45776;40.400;17.260;2022-07-23T02:29:23;101213.19;;;26.38;62.07
52947;BME280;45776;40.400;17.260;2022-07-23T02:31:48;101207.41;;;26.21;62.27
52947;BME280;45776;40.400;17.260;2022-07-23T02:34:14;101202.47;;;26.02;62.88
52947;BME280;45776;40.400;17.260;2022-07-23T02:36:39;101209.59;;;26.02;63.02
52947;BME280;45776;40.400;17.260;2022-07-23T02:39:05;101210.59;;;25.96;63.29
52947;BME280;45776;40.400;17.260;2022-07-23T02:41:30;101205.69;;;25.79;65.09
52947;BME280;45776;40.400;17.260;2022-07-23T02:43:56;101214.88;;;25.62;67.24
52947;BME280;45776;40.400;17.260;2022-07-23T02:46:21;101213.22;;;25.57;66.50
52947;BME280;45776;40.400;17.260;2022-07-23T02:48:47;101208.84;;;25.95;72.68
52947;BME280;45776;40.400;17.260;2022-07-23T02:51:12;101208.94;;;26.31;79.15
52947;BME280;45776;40.400;17.260;2022-07-23T02:53:38;101212.22;;;26.41;78.48
52947;BME280;45776;40.400;17.260;2022-07-23T02:56:03;101211.34;;;26.40;76.65
52947;BME280;45776;40.400;17.260;2022-07-23T02:58:29;101207.72;;;26.44;81.52
52947;BME280;45776;40.400;17.260;2022-07-23T03:00:54;101212.81;;;26.52;79.49
52947;BME280;45776;40.400;17.260;2022-07-23T03:03:20;101219.03;;;26.53;79.04
52947;BME280;45776;40.400;17.260;2022-07-23T03:05:46;101222.56;;;26.52;79.08
52947;BME280;45776;40.400;17.260;2022-07-23T03:08:11;101220.44;;;26.66;79.03
52947;BME280;45776;40.400;17.260;2022-07-23T03:10:37;101221.75;;;26.86;79.91
52947;BME280;45776;40.400;17.260;2022-07-23T03:13:02;101226.72;;;26.98;78.50
52947;BME280;45776;40.400;17.260;2022-07-23T03:15:28;101221.91;;;27.13;80.66
52947;BME280;45776;40.400;17.260;2022-07-23T03:17:53;101221.09;;;27.11;85.60
52947;BME280;45776;40.400;17.260;2022-07-23T03:20:19;101222.84;;;27.12;97.35
52947;BME280;45776;40.400;17.260;2022-07-23T03:22:45;101221.22;;;27.37;100.00
52947;BME280;45776;40.400;17.260;2022-07-23T03:25:10;101229.88;;;27.13;100.00
52947;BME280;45776;40.400;17.260;2022-07-23T03:27:35;101233.97;;;26.93;100.00
52947;BME280;45776;40.400;17.260;2022-07-23T03:30:02;101232.88;;;26.66;100.00
52947;BME280;45776;40.400;17.260;2022-07-23T03:32:28;101224.59;;;26.78;100.00
52947;BME280;45776;40.400;17.260;2022-07-23T03:34:53;101239.03;;;26.68;100.00
52947;BME280;45776;40.400;17.260;2022-07-23T03:37:19;101235.88;;;26.52;100.00
52947;BME280;45776;40.400;17.260;2022-07-23T03:39:45;101239.66;;;26.41;100.00
52947;BME280;45776;40.400;17.260;2022-07-23T03:42:11;101240.59;;;26.39;100.00
52947;BME280;45776;40.400;17.260;2022-07-23T03:44:36;101240.69;;;26.34;100.00
52947;BME280;45776;40.400;17.260;2022-07-23T03:47:04;101242.75;;;26.23;100.00
52947;BME280;45776;40.400;17.260;2022-07-23T03:49:30;101239.53;;;26.07;100.00
52947;BME280;45776;40.400;17.260;2022-07-23T03:51:55;101245.31;;;26.26;100.00
52947;BME280;45776;40.400;17.260;2022-07-23T03:54:21;101240.56;;;26.40;100.00
52947;BME280;45776;40.400;17.260;2022-07-23T03:56:46;101240.91;;;26.25;100.00
52947;BME280;45776;40.400;17.260;2022-07-23T03:59:12;101246.28;;;26.23;100.00
52947;BME280;45776;40.400;17.260;2022-07-23T04:01:38;101246.22;;;26.26;100.00
52947;BME280;45776;40.400;17.260;2022-07-23T04:04:03;101246.09;;;26.31;100.00
52947;BME280;45776;40.400;17.260;2022-07-23T04:06:29;101251.41;;;26.31;100.00
52947;BME280;45776;40.400;17.260;2022-07-23T04:08:54;101253.97;;;26.34;100.00
52947;BME280;45776;40.400;17.260;2022-07-23T04:11:20;101248.78;;;26.29;100.00
52947;BME280;45776;40.400;17.260;2022-07-23T04:13:45;101252.28;;;26.32;100.00
52947;BME280;45776;40.400;17.260;2022-07-23T04:16:11;101250.84;;;26.17;100.00
52947;BME280;45776;40.400;17.260;2022-07-23T04:18:37;101249.22;;;26.11;100.00
52947;BME280;45776;40.400;17.260;2022-07-23T04:21:03;101241.06;;;26.19;100.00
52947;BME280;45776;40.400;17.260;2022-07-23T04:23:28;101243.69;;;26.20;100.00
52947;BME280;45776;40.400;17.260;2022-07-23T04:25:54;101251.72;;;26.17;100.00
52947;BME280;45776;40.400;17.260;2022-07-23T04:28:19;101247.72;;;25.97;100.00
52947;BME280;45776;40.400;17.260;2022-07-23T04:30:45;101250.19;;;26.05;100.00
52947;BME280;45776;40.400;17.260;2022-07-23T04:33:10;101254.53;;;26.11;100.00
52947;BME280;45776;40.400;17.260;2022-07-23T04:35:36;101253.00;;;25.97;100.00
52947;BME280;45776;40.400;17.260;2022-07-23T04:38:02;101254.63;;;26.05;100.00
52947;BME280;45776;40.400;17.260;2022-07-23T04:40:28;101252.09;;;25.98;100.00
52947;BME280;45776;40.400;17.260;2022-07-23T04:42:54;101247.28;;;26.19;100.00
52947;BME280;45776;40.400;17.260;2022-07-23T04:45:20;101238.91;;;26.36;100.00
52947;BME280;45776;40.400;17.260;2022-07-23T04:47:46;101245.75;;;26.47;100.00
52947;BME280;45776;40.400;17.260;2022-07-23T04:50:11;101239.59;;;26.44;100.00
52947;BME280;45776;40.400;17.260;2022-07-23T04:52:37;101239.31;;;26.55;100.00
52947;BME280;45776;40.400;17.260;2022-07-23T04:55:03;101243.28;;;26.73;100.00
52947;BME280;45776;40.400;17.260;2022-07-23T04:57:28;101235.31;;;26.73;100.00
52947;BME280;45776;40.400;17.260;2022-07-23T04:59:54;101231.84;;;26.71;91.76
52947;BME280;45776;40.400;17.260;2022-07-23T05:02:19;101236.06;;;26.80;88.82
52947;BME280;45776;40.400;17.260;2022-07-23T05:04:45;101239.31;;;26.91;85.81
52947;BME280;45776;40.400;17.260;2022-07-23T05:07:10;101236.63;;;26.93;85.10
52947;BME280;45776;40.400;17.260;2022-07-23T05:09:36;101235.00;;;26.87;77.35
52947;BME280;45776;40.400;17.260;2022-07-23T05:12:01;101233.53;;;27.08;79.95
52947;BME280;45776;40.400;17.260;2022-07-23T05:14:27;101232.22;;;27.25;79.54
52947;BME280;45776;40.400;17.260;2022-07-23T05:16:53;101236.38;;;27.34;81.59
52947;BME280;45776;40.400;17.260;2022-07-23T05:19:20;101235.25;;;27.44;85.82
52947;BME280;45776;40.400;17.260;2022-07-23T05:21:45;101241.41;;;27.45;88.17
52947;BME280;45776;40.400;17.260;2022-07-23T05:24:11;101244.06;;;27.46;86.86
52947;BME280;45776;40.400;17.260;2022-07-23T05:26:36;101241.69;;;27.34;86.73
52947;BME280;45776;40.400;17.260;2022-07-23T05:29:02;101240.78;;;27.35;86.49
52947;BME280;45776;40.400;17.260;2022-07-23T05:31:27;101242.47;;;27.39;85.81
52947;BME280;45776;40.400;17.260;2022-07-23T05:33:53;101236.38;;;27.34;81.47
52947;BME280;45776;40.400;17.260;2022-07-23T05:36:18;101245.75;;;27.49;77.97
52947;BME280;45776;40.400;17.260;2022-07-23T05:38:44;101237.78;;;27.49;81.38
52947;BME280;45776;40.400;17.260;2022-07-23T05:41:09;101241.09;;;27.57;84.44
52947;BME280;45776;40.400;17.260;2022-07-23T05:43:35;101241.53;;;27.71;84.32
52947;BME280;45776;40.400;17.260;2022-07-23T05:46:00;101237.19;;;27.69;85.26
52947;BME280;45776;40.400;17.260;2022-07-23T05:48:26;101232.31;;;27.83;84.54
52947;BME280;45776;40.400;17.260;2022-07-23T05:50:51;101237.91;;;28.04;81.50
52947;BME280;45776;40.400;17.260;2022-07-23T05:53:17;101230.72;;;28.08;81.32
52947;BME280;45776;40.400;17.260;2022-07-23T05:55:42;101227.19;;;28.06;82.55
52947;BME280;45776;40.400;17.260;2022-07-23T05:58:08;101230.72;;;28.08;84.69
52947;BME280;45776;40.400;17.260;2022-07-23T06:00:34;101225.41;;;28.08;87.05
52947;BME280;45776;40.400;17.260;2022-07-23T06:03:00;101232.59;;;28.02;90.21
52947;BME280;45776;40.400;17.260;2022-07-23T06:05:26;101236.06;;;28.08;92.95
52947;BME280;45776;40.400;17.260;2022-07-23T06:07:52;101234.28;;;28.05;95.26
52947;BME280;45776;40.400;17.260;2022-07-23T06:10:18;101229.78;;;28.09;97.05
52947;BME280;45776;40.400;17.260;2022-07-23T06:12:44;101231.53;;;28.10;96.63
52947;BME280;45776;40.400;17.260;2022-07-23T06:15:09;101231.88;;;28.27;94.52
52947;BME280;45776;40.400;17.260;2022-07-23T06:17:36;101241.53;;;28.30;90.92
52947;BME280;45776;40.400;17.260;2022-07-23T06:20:05;101237.41;;;28.21;92.79
52947;BME280;45776;40.400;17.260;2022-07-23T06:22:31;101234.84;;;28.45;93.70
52947;BME280;45776;40.400;17.260;2022-07-23T06:24:56;101236.84;;;28.38;96.23
52947;BME280;45776;40.400;17.260;2022-07-23T06:27:22;101238.53;;;28.41;98.27
52947;BME280;45776;40.400;17.260;2022-07-23T06:29:47;101241.50;;;28.58;99.78
52947;BME280;45776;40.400;17.260;2022-07-23T06:32:13;101243.41;;;28.55;100.00
52947;BME280;45776;40.400;17.260;2022-07-23T06:34:38;101244.78;;;28.67;99.95
52947;BME280;45776;40.400;17.260;2022-07-23T06:37:04;101249.06;;;28.72;99.69
52947;BME280;45776;40.400;17.260;2022-07-23T06:39:29;101246.47;;;28.69;98.82
52947;BME280;45776;40.400;17.260;2022-07-23T06:41:55;101248.22;;;28.72;98.62
52947;BME280;45776;40.400;17.260;2022-07-23T06:44:20;101251.41;;;28.82;97.71
52947;BME280;45776;40.400;17.260;2022-07-23T06:46:46;101243.31;;;28.85;96.07
52947;BME280;45776;40.400;17.260;2022-07-23T06:49:11;101252.44;;;28.77;95.44
52947;BME280;45776;40.400;17.260;2022-07-23T06:51:37;101246.19;;;28.78;96.08
52947;BME280;45776;40.400;17.260;2022-07-23T06:54:03;101252.25;;;28.84;95.95
52947;BME280;45776;40.400;17.260;2022-07-23T06:56:28;101247.88;;;28.81;96.92
52947;BME280;45776;40.400;17.260;2022-07-23T06:58:54;101241.38;;;28.90;96.03
52947;BME280;45776;40.400;17.260;2022-07-23T07:01:19;101246.31;;;29.01;95.78
52947;BME280;45776;40.400;17.260;2022-07-23T07:03:46;101247.34;;;28.96;97.62
52947;BME280;45776;40.400;17.260;2022-07-23T07:06:12;101246.78;;;28.87;96.89
52947;BME280;45776;40.400;17.260;2022-07-23T07:08:38;101241.38;;;28.90;96.50
52947;BME280;45776;40.400;17.260;2022-07-23T07:11:03;101240.38;;;28.92;94.98
52947;BME280;45776;40.400;17.260;2022-07-23T07:13:28;101239.06;;;29.04;92.32
52947;BME280;45776;40.400;17.260;2022-07-23T07:15:54;101228.66;;;28.96;92.01
52947;BME280;45776;40.400;17.260;2022-07-23T07:18:19;101229.41;;;29.02;93.02
52947;BME280;45776;40.400;17.260;2022-07-23T07:20:45;101230.25;;;29.02;90.50
52947;BME280;45776;40.400;17.260;2022-07-23T07:23:12;101228.56;;;29.00;88.97
52947;BME280;45776;40.400;17.260;2022-07-23T07:25:37;101230.97;;;29.07;86.23
52947;BME280;45776;40.400;17.260;2022-07-23T07:28:03;101230.69;;;29.15;82.17
52947;BME280;45776;40.400;17.260;2022-07-23T07:30:28;101231.09;;;29.28;79.77
52947;BME280;45776;40.400;17.260;2022-07-23T07:32:54;101219.84;;;29.20;81.89
52947;BME280;45776;40.400;17.260;2022-07-23T07:35:19;101234.41;;;29.36;81.92
52947;BME280;45776;40.400;17.260;2022-07-23T07:37:45;101227.53;;;29.29;84.97
52947;BME280;45776;40.400;17.260;2022-07-23T07:40:11;101222.06;;;29.34;85.20
52947;BME280;45776;40.400;17.260;2022-07-23T07:42:50;101233.31;;;29.42;89.61
52947;BME280;45776;40.400;17.260;2022-07-23T07:45:16;101228.47;;;29.52;95.85
52947;BME280;45776;40.400;17.260;2022-07-23T07:47:43;101234.72;;;29.52;96.17
52947;BME280;45776;40.400;17.260;2022-07-23T07:50:09;101240.31;;;29.45;100.00
52947;BME280;45776;40.400;17.260;2022-07-23T07:52:35;101234.41;;;29.36;100.00
52947;BME280;45776;40.400;17.260;2022-07-23T07:55:05;101247.22;;;29.25;100.00
52947;BME280;45776;40.400;17.260;2022-07-23T07:57:31;101245.50;;;29.24;100.00
52947;BME280;45776;40.400;17.260;2022-07-23T07:59:57;101242.81;;;29.49;100.00
52947;BME280;45776;40.400;17.260;2022-07-23T08:02:22;101244.97;;;29.39;100.00
52947;BME280;45776;40.400;17.260;2022-07-23T08:04:48;101250.09;;;29.20;100.00
52947;BME280;45776;40.400;17.260;2022-07-23T08:07:14;101245.16;;;29.08;100.00
52947;BME280;45776;40.400;17.260;2022-07-23T08:09:40;101248.66;;;29.10;100.00
52947;BME280;45776;40.400;17.260;2022-07-23T08:12:05;101254.22;;;29.04;100.00
52947;BME280;45776;40.400;17.260;2022-07-23T08:14:31;101255.28;;;28.98;100.00
52947;BME280;45776;40.400;17.260;2022-07-23T08:16:57;101266.25;;;29.16;100.00
52947;BME280;45776;40.400;17.260;2022-07-23T08:19:22;101244.09;;;29.39;97.51
52947;BME280;45776;40.400;17.260;2022-07-23T08:21:47;101252.75;;;29.46;90.31
52947;BME280;45776;40.400;17.260;2022-07-23T08:24:13;101245.75;;;29.65;91.78
52947;BME280;45776;40.400;17.260;2022-07-23T08:26:38;101248.38;;;29.43;93.07
52947;BME280;45776;40.400;17.260;2022-07-23T08:29:04;101248.56;;;29.62;97.69
52947;BME280;45776;40.400;17.260;2022-07-23T08:31:29;101254.13;;;29.80;100.00
52947;BME280;45776;40.400;17.260;2022-07-23T08:33:55;101254.31;;;29.51;100.00
52947;BME280;45776;40.400;17.260;2022-07-23T08:36:21;101252.66;;;29.71;100.00
52947;BME280;45776;40.400;17.260;2022-07-23T08:38:47;101251.00;;;29.68;100.00
52947;BME280;45776;40.400;17.260;2022-07-23T08:41:12;101242.91;;;29.70;100.00
52947;BME280;45776;40.400;17.260;2022-07-23T08:43:40;101262.66;;;29.66;98.33
52947;BME280;45776;40.400;17.260;2022-07-23T08:46:05;101260.56;;;29.74;100.00
52947;BME280;45776;40.400;17.260;2022-07-23T08:48:35;101263.94;;;29.79;97.04
52947;BME280;45776;40.400;17.260;2022-07-23T08:51:05;101263.00;;;29.80;97.50
52947;BME280;45776;40.400;17.260;2022-07-23T08:53:32;101251.81;;;29.94;99.19
52947;BME280;45776;40.400;17.260;2022-07-23T08:56:00;101258.03;;;30.17;100.00
52947;BME280;45776;40.400;17.260;2022-07-23T08:58:29;101264.50;;;29.87;100.00
52947;BME280;45776;40.400;17.260;2022-07-23T09:00:56;101258.03;;;29.95;100.00
52947;BME280;45776;40.400;17.260;2022-07-23T09:03:25;101260.25;;;29.82;100.00
52947;BME280;45776;40.400;17.260;2022-07-23T09:05:52;101263.94;;;30.03;100.00
52947;BME280;45776;40.400;17.260;2022-07-23T09:08:33;101257.66;;;30.04;100.00
52947;BME280;45776;40.400;17.260;2022-07-23T09:11:02;101254.63;;;30.13;100.00
52947;BME280;45776;40.400;17.260;2022-07-23T09:13:32;101259.78;;;30.18;100.00
52947;BME280;45776;40.400;17.260;2022-07-23T09:16:20;101257.22;;;30.37;100.00
52947;BME280;45776;40.400;17.260;2022-07-23T09:18:50;101261.56;;;30.17;100.00
52947;BME280;45776;40.400;17.260;2022-07-23T09:23:58;101262.47;;;30.40;100.00
52947;BME280;45776;40.400;17.260;2022-07-23T09:26:39;101259.84;;;29.94;100.00
52947;BME280;45776;40.400;17.260;2022-07-23T09:29:09;101266.03;;;29.95;100.00
52947;BME280;45776;40.400;17.260;2022-07-23T09:34:19;101263.13;;;30.45;100.00
52947;BME280;45776;40.400;17.260;2022-07-23T09:36:46;101260.53;;;30.21;99.62
52947;BME280;45776;40.400;17.260;2022-07-23T09:39:13;101271.03;;;30.26;98.97
52947;BME280;45776;40.400;17.260;2022-07-23T09:41:44;101269.22;;;30.27;99.68
52947;BME280;45776;40.400;17.260;2022-07-23T09:44:15;101273.53;;;30.31;100.00
52947;BME280;45776;40.400;17.260;2022-07-23T09:46:43;101263.59;;;30.57;100.00
52947;BME280;45776;40.400;17.260;2022-07-23T09:49:13;101268.78;;;30.60;100.00
52947;BME280;45776;40.400;17.260;2022-07-23T09:51:56;101264.97;;;30.21;100.00
52947;BME280;45776;40.400;17.260;2022-07-23T09:57:19;101262.63;;;31.21;100.00
52947;BME280;45776;40.400;17.260;2022-07-23T09:59:46;101263.69;;;31.17;100.00
52947;BME280;45776;40.400;17.260;2022-07-23T10:02:13;101262.66;;;30.99;99.22
52947;BME280;45776;40.400;17.260;2022-07-23T10:04:40;101258.53;;;30.92;98.43
52947;BME280;45776;40.400;17.260;2022-07-23T10:07:08;101261.66;;;31.02;98.48
52947;BME280;45776;40.400;17.260;2022-07-23T10:09:42;101252.91;;;30.98;100.00
52947;BME280;45776;40.400;17.260;2022-07-23T10:12:13;101256.50;;;31.38;100.00
52947;BME280;45776;40.400;17.260;2022-07-23T10:14:48;101257.78;;;31.09;100.00
52947;BME280;45776;40.400;17.260;2022-07-23T10:17:14;101260.44;;;31.10;100.00
52947;BME280;45776;40.400;17.260;2022-07-23T10:19:40;101256.88;;;31.30;100.00
52947;BME280;45776;40.400;17.260;2022-07-23T10:22:25;101254.69;;;31.20;100.00
52947;BME280;45776;40.400;17.260;2022-07-23T10:27:50;101253.78;;;31.40;100.00
52947;BME280;45776;40.400;17.260;2022-07-23T10:36:11;101239.69;;;31.55;100.00
52947;BME280;45776;40.400;17.260;2022-07-23T10:38:58;101241.91;;;31.66;100.00
52947;BME280;45776;40.400;17.260;2022-07-23T10:44:32;101231.66;;;31.55;100.00
52947;BME280;45776;40.400;17.260;2022-07-23T10:47:04;101226.47;;;31.71;100.00
52947;BME280;45776;40.400;17.260;2022-07-23T10:58:05;101217.06;;;31.82;100.00
52947;BME280;45776;40.400;17.260;2022-07-23T11:00:32;101203.81;;;31.78;100.00
52947;BME280;45776;40.400;17.260;2022-07-23T11:02:59;101208.31;;;31.78;100.00
52947;BME280;45776;40.400;17.260;2022-07-23T11:05:40;101211.00;;;31.57;100.00
52947;BME280;45776;40.400;17.260;2022-07-23T11:10:41;101202.06;;;31.97;100.00
52947;BME280;45776;40.400;17.260;2022-07-23T11:16:08;101204.28;;;32.43;97.10
52947;BME280;45776;40.400;17.260;2022-07-23T11:24:15;101195.28;;;32.26;100.00
52947;BME280;45776;40.400;17.260;2022-07-23T11:26:48;101195.91;;;32.66;91.13
52947;BME280;45776;40.400;17.260;2022-07-23T11:32:01;101186.13;;;33.00;92.52
52947;BME280;45776;40.400;17.260;2022-07-23T11:34:34;101190.00;;;32.95;97.72
52947;BME280;45776;40.400;17.260;2022-07-23T11:37:02;101187.69;;;33.54;100.00
52947;BME280;45776;40.400;17.260;2022-07-23T11:39:28;101186.72;;;33.89;100.00
52947;BME280;45776;40.400;17.260;2022-07-23T11:41:56;101190.72;;;33.48;96.04
52947;BME280;45776;40.400;17.260;2022-07-23T11:44:31;101178.88;;;33.68;99.65
52947;BME280;45776;40.400;17.260;2022-07-23T11:47:05;101183.41;;;32.84;96.03
52947;BME280;45776;40.400;17.260;2022-07-23T11:49:31;101183.22;;;32.87;100.00
52947;BME280;45776;40.400;17.260;2022-07-23T11:54:34;101175.53;;;32.97;98.33
52947;BME280;45776;40.400;17.260;2022-07-23T11:57:01;101171.72;;;33.19;90.00
52947;BME280;45776;40.400;17.260;2022-07-23T11:59:33;101169.34;;;33.46;83.19
52947;BME280;45776;40.400;17.260;2022-07-23T12:02:04;101167.38;;;34.28;82.34
52947;BME280;45776;40.400;17.260;2022-07-23T12:04:43;101178.28;;;34.25;81.26
52947;BME280;45776;40.400;17.260;2022-07-23T12:07:38;101174.91;;;34.38;81.01
52947;BME280;45776;40.400;17.260;2022-07-23T12:12:53;101165.72;;;35.16;84.94
52947;BME280;45776;40.400;17.260;2022-07-23T12:15:25;101160.97;;;34.90;85.19
52947;BME280;45776;40.400;17.260;2022-07-23T12:17:52;101156.38;;;34.93;80.03
52947;BME280;45776;40.400;17.260;2022-07-23T12:20:22;101152.13;;;34.29;85.04
52947;BME280;45776;40.400;17.260;2022-07-23T12:22:51;101146.81;;;34.72;84.53
52947;BME280;45776;40.400;17.260;2022-07-23T12:25:20;101145.69;;;34.77;79.34
52947;BME280;45776;40.400;17.260;2022-07-23T12:27:57;101149.22;;;34.77;74.85
52947;BME280;45776;40.400;17.260;2022-07-23T12:30:49;101136.28;;;34.69;75.49
52947;BME280;45776;40.400;17.260;2022-07-23T12:33:15;101142.63;;;34.68;77.63
52947;BME280;45776;40.400;17.260;2022-07-23T12:35:46;101141.63;;;34.55;77.96
52947;BME280;45776;40.400;17.260;2022-07-23T12:38:15;101142.06;;;34.92;78.24
52947;BME280;45776;40.400;17.260;2022-07-23T12:41:03;101143.53;;;34.22;80.34
52947;BME280;45776;40.400;17.260;2022-07-23T12:43:36;101136.41;;;34.07;83.36
52947;BME280;45776;40.400;17.260;2022-07-23T12:46:03;101140.31;;;34.32;82.57
52947;BME280;45776;40.400;17.260;2022-07-23T12:48:30;101138.66;;;33.99;87.87
52947;BME280;45776;40.400;17.260;2022-07-23T12:51:06;101133.31;;;34.88;87.00
52947;BME280;45776;40.400;17.260;2022-07-23T12:53:41;101139.13;;;34.52;90.32
52947;BME280;45776;40.400;17.260;2022-07-23T12:58:51;101127.59;;;34.79;86.14
52947;BME280;45776;40.400;17.260;2022-07-23T13:03:55;101126.34;;;34.41;91.92
52947;BME280;45776;40.400;17.260;2022-07-23T13:06:21;101126.25;;;34.26;91.53
52947;BME280;45776;40.400;17.260;2022-07-23T13:08:46;101125.19;;;34.74;89.69
52947;BME280;45776;40.400;17.260;2022-07-23T13:11:12;101116.00;;;34.64;97.96
52947;BME280;45776;40.400;17.260;2022-07-23T13:13:38;101122.13;;;34.21;100.00
52947;BME280;45776;40.400;17.260;2022-07-23T13:16:03;101117.50;;;34.39;100.00
52947;BME280;45776;40.400;17.260;2022-07-23T13:18:30;101117.69;;;34.50;100.00
52947;BME280;45776;40.400;17.260;2022-07-23T13:20:55;101123.47;;;34.58;96.63
52947;BME280;45776;40.400;17.260;2022-07-23T13:23:21;101123.38;;;34.15;100.00
52947;BME280;45776;40.400;17.260;2022-07-23T13:25:47;101116.06;;;33.71;100.00
52947;BME280;45776;40.400;17.260;2022-07-23T13:28:14;101111.81;;;33.50;99.06
52947;BME280;45776;40.400;17.260;2022-07-23T13:30:41;101107.13;;;33.86;100.00